54WA weather

Tukwila Operations Center Heliport
Tukwila, Washington, United States

Public forecast

Using degrees Fahrenheit for public forecast. Weather courtesy of forecast.io.

Closest aviation weather report (METAR) to Tukwila Operations Center Heliport

Closest report is Seattle Tacoma International Airport, 2.5 nm (4.7 km) WNW. Retrieved 2020/07/02 11:53 UTC (37 minutes ago):

KSEA 021153Z 19013KT 10SM BKN024 OVC032 13/09 A2996 RMK AO2 SLP149 70001 T01330089 10144 20128 51004

Closest aviation forecast (TAF) to Tukwila Operations Center Heliport

Closest forecast is Seattle Tacoma International Airport, 2.5 nm (4.7 km) WNW. Retrieved 2020/07/02 12:36 UTC (0 seconds ago):

TAF KSEA 021134Z 0212/0318 20010KT P6SM BKN015 OVC025 FM021800 21010G18KT P6SM SCT015 OVC025 FM022100 22010KT P6SM OVC050 FM030100 23005KT P6SM OVC050 FM030900 17005KT P6SM OVC050